sensor_id;sensor_type;location;lat;lon;timestamp;temperature;humidity
19242;DHT22;9755;47.790;9.620;2023-08-06T00:01:10;14.10;99.90
19242;DHT22;9755;47.790;9.620;2023-08-06T00:03:37;14.10;99.90
19242;DHT22;9755;47.790;9.620;2023-08-06T00:06:05;14.10;99.90
19242;DHT22;9755;47.790;9.620;2023-08-06T00:08:32;14.10;99.90
19242;DHT22;9755;47.790;9.620;2023-08-06T00:11:00;14.10;99.90
19242;DHT22;9755;47.790;9.620;2023-08-06T00:13:27;14.10;99.90
19242;DHT22;9755;47.790;9.620;2023-08-06T00:15:54;14.10;99.90
19242;DHT22;9755;47.790;9.620;2023-08-06T00:18:21;14.10;99.90
19242;DHT22;9755;47.790;9.620;2023-08-06T00:20:48;14.10;99.90
19242;DHT22;9755;47.790;9.620;2023-08-06T00:23:15;14.10;99.90
19242;DHT22;9755;47.790;9.620;2023-08-06T00:25:43;14.10;99.90
19242;DHT22;9755;47.790;9.620;2023-08-06T00:28:11;14.00;99.90
19242;DHT22;9755;47.790;9.620;2023-08-06T00:30:38;14.00;99.90
19242;DHT22;9755;47.790;9.620;2023-08-06T00:33:05;14.00;99.90
19242;DHT22;9755;47.790;9.620;2023-08-06T00:35:32;13.90;99.90
19242;DHT22;9755;47.790;9.620;2023-08-06T00:37:59;13.90;99.90
19242;DHT22;9755;47.790;9.620;2023-08-06T00:40:26;13.80;99.90
19242;DHT22;9755;47.790;9.620;2023-08-06T00:42:54;13.80;99.90
19242;DHT22;9755;47.790;9.620;2023-08-06T00:45:23;13.80;99.90
19242;DHT22;9755;47.790;9.620;2023-08-06T00:47:50;13.80;99.90
19242;DHT22;9755;47.790;9.620;2023-08-06T00:50:17;13.80;99.90
19242;DHT22;9755;47.790;9.620;2023-08-06T00:52:46;13.90;99.90
19242;DHT22;9755;47.790;9.620;2023-08-06T00:55:13;13.90;99.90
19242;DHT22;9755;47.790;9.620;2023-08-06T00:57:41;13.90;99.90
19242;DHT22;9755;47.790;9.620;2023-08-06T01:00:09;13.90;99.90
19242;DHT22;9755;47.790;9.620;2023-08-06T01:02:38;13.90;99.90
19242;DHT22;9755;47.790;9.620;2023-08-06T01:05:05;13.90;99.90
19242;DHT22;9755;47.790;9.620;2023-08-06T01:07:41;13.90;99.90
19242;DHT22;9755;47.790;9.620;2023-08-06T01:10:23;13.90;99.90
19242;DHT22;9755;47.790;9.620;2023-08-06T01:12:55;13.90;99.90
19242;DHT22;9755;47.790;9.620;2023-08-06T01:15:30;13.90;99.90
19242;DHT22;9755;47.790;9.620;2023-08-06T01:18:00;13.80;99.90
19242;DHT22;9755;47.790;9.620;2023-08-06T01:20:30;13.70;99.90
19242;DHT22;9755;47.790;9.620;2023-08-06T01:22:57;13.80;99.90
19242;DHT22;9755;47.790;9.620;2023-08-06T01:25:29;13.70;99.90
19242;DHT22;9755;47.790;9.620;2023-08-06T01:28:02;13.70;99.90
19242;DHT22;9755;47.790;9.620;2023-08-06T01:30:32;13.60;99.90
19242;DHT22;9755;47.790;9.620;2023-08-06T01:33:04;13.60;99.90
19242;DHT22;9755;47.790;9.620;2023-08-06T01:35:33;13.50;99.90
19242;DHT22;9755;47.790;9.620;2023-08-06T01:38:02;13.60;99.90
19242;DHT22;9755;47.790;9.620;2023-08-06T01:40:30;13.60;99.90
19242;DHT22;9755;47.790;9.620;2023-08-06T01:42:58;13.60;99.90
19242;DHT22;9755;47.790;9.620;2023-08-06T01:45:25;13.50;99.90
19242;DHT22;9755;47.790;9.620;2023-08-06T01:47:52;13.50;99.90
19242;DHT22;9755;47.790;9.620;2023-08-06T01:50:19;13.50;99.90
19242;DHT22;9755;47.790;9.620;2023-08-06T01:52:47;13.50;99.90
19242;DHT22;9755;47.790;9.620;2023-08-06T01:55:14;13.40;99.90
19242;DHT22;9755;47.790;9.620;2023-08-06T01:57:41;13.40;99.90
19242;DHT22;9755;47.790;9.620;2023-08-06T02:00:09;13.30;99.90
19242;DHT22;9755;47.790;9.620;2023-08-06T02:02:37;13.30;99.90
19242;DHT22;9755;47.790;9.620;2023-08-06T02:05:04;13.20;99.90
19242;DHT22;9755;47.790;9.620;2023-08-06T02:07:32;13.10;99.90
19242;DHT22;9755;47.790;9.620;2023-08-06T02:10:00;13.10;99.90
19242;DHT22;9755;47.790;9.620;2023-08-06T02:12:27;13.00;99.90
19242;DHT22;9755;47.790;9.620;2023-08-06T02:14:54;12.80;99.90
19242;DHT22;9755;47.790;9.620;2023-08-06T02:17:21;12.80;99.90
19242;DHT22;9755;47.790;9.620;2023-08-06T02:19:48;12.50;99.90
19242;DHT22;9755;47.790;9.620;2023-08-06T02:22:15;12.30;99.90
19242;DHT22;9755;47.790;9.620;2023-08-06T02:24:42;12.50;99.90
19242;DHT22;9755;47.790;9.620;2023-08-06T02:27:11;12.70;99.90
19242;DHT22;9755;47.790;9.620;2023-08-06T02:29:40;12.80;99.90
19242;DHT22;9755;47.790;9.620;2023-08-06T02:32:07;12.90;99.90
19242;DHT22;9755;47.790;9.620;2023-08-06T02:34:34;12.80;99.90
19242;DHT22;9755;47.790;9.620;2023-08-06T02:37:01;12.70;99.90
19242;DHT22;9755;47.790;9.620;2023-08-06T02:39:29;12.60;99.90
19242;DHT22;9755;47.790;9.620;2023-08-06T02:41:56;12.50;99.90
19242;DHT22;9755;47.790;9.620;2023-08-06T02:44:27;12.60;99.90
19242;DHT22;9755;47.790;9.620;2023-08-06T02:46:54;12.60;99.90
19242;DHT22;9755;47.790;9.620;2023-08-06T02:49:21;12.60;99.90
19242;DHT22;9755;47.790;9.620;2023-08-06T02:51:48;12.60;99.90
19242;DHT22;9755;47.790;9.620;2023-08-06T02:54:15;12.60;99.90
19242;DHT22;9755;47.790;9.620;2023-08-06T02:56:43;12.70;99.90
19242;DHT22;9755;47.790;9.620;2023-08-06T02:59:11;12.70;99.90
19242;DHT22;9755;47.790;9.620;2023-08-06T03:01:40;12.80;99.90
19242;DHT22;9755;47.790;9.620;2023-08-06T03:04:07;12.80;99.90
19242;DHT22;9755;47.790;9.620;2023-08-06T03:06:34;12.90;99.90
19242;DHT22;9755;47.790;9.620;2023-08-06T03:09:01;12.90;99.90
19242;DHT22;9755;47.790;9.620;2023-08-06T03:11:28;12.90;99.90
19242;DHT22;9755;47.790;9.620;2023-08-06T03:13:55;12.90;99.90
19242;DHT22;9755;47.790;9.620;2023-08-06T03:16:22;12.80;99.90
19242;DHT22;9755;47.790;9.620;2023-08-06T03:18:50;12.80;99.90
19242;DHT22;9755;47.790;9.620;2023-08-06T03:21:17;12.90;99.90
19242;DHT22;9755;47.790;9.620;2023-08-06T03:23:47;12.90;99.90
19242;DHT22;9755;47.790;9.620;2023-08-06T03:26:14;12.90;99.90
19242;DHT22;9755;47.790;9.620;2023-08-06T03:28:41;12.80;99.90
19242;DHT22;9755;47.790;9.620;2023-08-06T03:31:08;12.80;99.90
19242;DHT22;9755;47.790;9.620;2023-08-06T03:33:35;12.80;99.90
19242;DHT22;9755;47.790;9.620;2023-08-06T03:36:04;12.70;99.90
19242;DHT22;9755;47.790;9.620;2023-08-06T03:38:31;12.70;99.90
19242;DHT22;9755;47.790;9.620;2023-08-06T03:40:58;12.80;99.90
19242;DHT22;9755;47.790;9.620;2023-08-06T03:43:25;12.90;99.90
19242;DHT22;9755;47.790;9.620;2023-08-06T03:45:52;13.00;99.90
19242;DHT22;9755;47.790;9.620;2023-08-06T03:48:19;13.00;99.90
19242;DHT22;9755;47.790;9.620;2023-08-06T03:50:46;13.00;99.90
19242;DHT22;9755;47.790;9.620;2023-08-06T03:53:14;13.00;99.90
19242;DHT22;9755;47.790;9.620;2023-08-06T03:55:42;13.00;99.90
19242;DHT22;9755;47.790;9.620;2023-08-06T03:58:09;12.90;99.90
19242;DHT22;9755;47.790;9.620;2023-08-06T04:00:36;13.00;99.90
19242;DHT22;9755;47.790;9.620;2023-08-06T04:03:03;13.00;99.90
19242;DHT22;9755;47.790;9.620;2023-08-06T04:05:31;13.00;99.90
19242;DHT22;9755;47.790;9.620;2023-08-06T04:07:58;13.00;99.90
19242;DHT22;9755;47.790;9.620;2023-08-06T04:10:26;13.00;99.90
19242;DHT22;9755;47.790;9.620;2023-08-06T04:12:53;13.00;99.90
19242;DHT22;9755;47.790;9.620;2023-08-06T04:15:20;13.00;99.90
19242;DHT22;9755;47.790;9.620;2023-08-06T04:17:47;13.00;99.90
19242;DHT22;9755;47.790;9.620;2023-08-06T04:20:15;13.00;99.90
19242;DHT22;9755;47.790;9.620;2023-08-06T04:22:41;13.00;99.90
19242;DHT22;9755;47.790;9.620;2023-08-06T04:25:09;13.10;99.90
19242;DHT22;9755;47.790;9.620;2023-08-06T04:27:37;13.10;99.90
19242;DHT22;9755;47.790;9.620;2023-08-06T04:30:07;13.10;99.90
19242;DHT22;9755;47.790;9.620;2023-08-06T04:32:34;13.10;99.90
19242;DHT22;9755;47.790;9.620;2023-08-06T04:35:02;13.20;99.90
19242;DHT22;9755;47.790;9.620;2023-08-06T04:37:29;13.50;99.90
19242;DHT22;9755;47.790;9.620;2023-08-06T04:39:56;13.50;99.90
19242;DHT22;9755;47.790;9.620;2023-08-06T04:42:23;13.50;99.90
19242;DHT22;9755;47.790;9.620;2023-08-06T04:44:50;13.50;99.90
19242;DHT22;9755;47.790;9.620;2023-08-06T04:47:17;13.50;99.90
19242;DHT22;9755;47.790;9.620;2023-08-06T04:49:44;13.50;99.90
19242;DHT22;9755;47.790;9.620;2023-08-06T04:52:11;13.60;99.90
19242;DHT22;9755;47.790;9.620;2023-08-06T04:54:39;13.60;99.90
19242;DHT22;9755;47.790;9.620;2023-08-06T04:57:06;13.70;99.90
19242;DHT22;9755;47.790;9.620;2023-08-06T04:59:33;13.70;99.90
19242;DHT22;9755;47.790;9.620;2023-08-06T05:02:01;13.70;99.90
19242;DHT22;9755;47.790;9.620;2023-08-06T05:04:28;13.60;99.90
19242;DHT22;9755;47.790;9.620;2023-08-06T05:06:55;13.60;99.90
19242;DHT22;9755;47.790;9.620;2023-08-06T05:09:22;13.50;99.90
19242;DHT22;9755;47.790;9.620;2023-08-06T05:11:49;13.50;99.90
19242;DHT22;9755;47.790;9.620;2023-08-06T05:14:16;13.50;99.90
19242;DHT22;9755;47.790;9.620;2023-08-06T05:16:43;13.50;99.90
19242;DHT22;9755;47.790;9.620;2023-08-06T05:19:12;13.60;99.90
19242;DHT22;9755;47.790;9.620;2023-08-06T05:21:39;13.50;99.90
19242;DHT22;9755;47.790;9.620;2023-08-06T05:24:06;13.40;99.90
19242;DHT22;9755;47.790;9.620;2023-08-06T05:26:33;13.40;99.90
19242;DHT22;9755;47.790;9.620;2023-08-06T05:29:00;13.30;99.90
19242;DHT22;9755;47.790;9.620;2023-08-06T05:31:27;13.40;99.90
19242;DHT22;9755;47.790;9.620;2023-08-06T05:33:55;13.40;99.90
19242;DHT22;9755;47.790;9.620;2023-08-06T05:36:23;13.40;99.90
19242;DHT22;9755;47.790;9.620;2023-08-06T05:38:51;13.40;99.90
19242;DHT22;9755;47.790;9.620;2023-08-06T05:41:18;13.40;99.90
19242;DHT22;9755;47.790;9.620;2023-08-06T05:43:45;13.40;99.90
19242;DHT22;9755;47.790;9.620;2023-08-06T05:46:12;13.50;99.90
19242;DHT22;9755;47.790;9.620;2023-08-06T05:48:39;13.50;99.90
19242;DHT22;9755;47.790;9.620;2023-08-06T05:51:06;13.50;99.90
19242;DHT22;9755;47.790;9.620;2023-08-06T05:53:35;13.50;99.90
19242;DHT22;9755;47.790;9.620;2023-08-06T05:56:02;13.50;99.90
19242;DHT22;9755;47.790;9.620;2023-08-06T05:58:29;13.40;99.90
19242;DHT22;9755;47.790;9.620;2023-08-06T06:00:56;13.40;99.90
19242;DHT22;9755;47.790;9.620;2023-08-06T06:03:23;13.40;99.90
19242;DHT22;9755;47.790;9.620;2023-08-06T06:05:50;13.50;99.90
19242;DHT22;9755;47.790;9.620;2023-08-06T06:08:17;13.50;99.90
19242;DHT22;9755;47.790;9.620;2023-08-06T06:10:45;13.60;99.90
19242;DHT22;9755;47.790;9.620;2023-08-06T06:13:12;13.80;99.90
19242;DHT22;9755;47.790;9.620;2023-08-06T06:15:39;14.00;99.90
19242;DHT22;9755;47.790;9.620;2023-08-06T06:18:06;14.20;99.90
19242;DHT22;9755;47.790;9.620;2023-08-06T06:20:33;14.30;99.90
19242;DHT22;9755;47.790;9.620;2023-08-06T06:23:00;14.50;99.90
19242;DHT22;9755;47.790;9.620;2023-08-06T06:25:27;14.30;99.90
19242;DHT22;9755;47.790;9.620;2023-08-06T06:27:56;14.00;99.90
19242;DHT22;9755;47.790;9.620;2023-08-06T06:30:24;14.00;99.90
19242;DHT22;9755;47.790;9.620;2023-08-06T06:32:51;14.80;99.90
19242;DHT22;9755;47.790;9.620;2023-08-06T06:35:18;15.50;99.90
19242;DHT22;9755;47.790;9.620;2023-08-06T06:37:45;15.50;99.90
19242;DHT22;9755;47.790;9.620;2023-08-06T06:40:12;15.10;99.90
19242;DHT22;9755;47.790;9.620;2023-08-06T06:42:39;14.80;99.90
19242;DHT22;9755;47.790;9.620;2023-08-06T06:45:09;14.70;99.90
19242;DHT22;9755;47.790;9.620;2023-08-06T06:47:36;14.60;99.90
19242;DHT22;9755;47.790;9.620;2023-08-06T06:50:03;14.80;99.90
19242;DHT22;9755;47.790;9.620;2023-08-06T06:52:30;15.00;99.90
19242;DHT22;9755;47.790;9.620;2023-08-06T06:54:57;14.90;99.90
19242;DHT22;9755;47.790;9.620;2023-08-06T06:57:24;14.80;99.90
19242;DHT22;9755;47.790;9.620;2023-08-06T06:59:51;14.80;99.90
19242;DHT22;9755;47.790;9.620;2023-08-06T07:02:20;15.00;99.90
19242;DHT22;9755;47.790;9.620;2023-08-06T07:04:47;15.40;99.90
19242;DHT22;9755;47.790;9.620;2023-08-06T07:07:14;15.20;99.90
19242;DHT22;9755;47.790;9.620;2023-08-06T07:09:41;15.20;99.90
19242;DHT22;9755;47.790;9.620;2023-08-06T07:12:08;15.30;99.90
19242;DHT22;9755;47.790;9.620;2023-08-06T07:14:35;15.20;99.90
19242;DHT22;9755;47.790;9.620;2023-08-06T07:17:02;15.40;99.90
19242;DHT22;9755;47.790;9.620;2023-08-06T07:19:31;15.30;99.90
19242;DHT22;9755;47.790;9.620;2023-08-06T07:21:58;15.30;99.90
19242;DHT22;9755;47.790;9.620;2023-08-06T07:24:25;15.20;99.90
19242;DHT22;9755;47.790;9.620;2023-08-06T07:26:52;15.10;99.90
19242;DHT22;9755;47.790;9.620;2023-08-06T07:29:19;15.20;99.90
19242;DHT22;9755;47.790;9.620;2023-08-06T07:31:48;15.20;99.90
19242;DHT22;9755;47.790;9.620;2023-08-06T07:34:15;14.90;99.90
19242;DHT22;9755;47.790;9.620;2023-08-06T07:36:45;14.90;99.90
19242;DHT22;9755;47.790;9.620;2023-08-06T07:39:12;14.70;99.90
19242;DHT22;9755;47.790;9.620;2023-08-06T07:41:42;14.70;99.90
19242;DHT22;9755;47.790;9.620;2023-08-06T07:44:09;14.60;99.90
19242;DHT22;9755;47.790;9.620;2023-08-06T07:46:36;14.50;99.90
19242;DHT22;9755;47.790;9.620;2023-08-06T07:49:04;14.20;99.90
19242;DHT22;9755;47.790;9.620;2023-08-06T07:51:31;14.10;99.90
19242;DHT22;9755;47.790;9.620;2023-08-06T07:53:59;14.10;99.90
19242;DHT22;9755;47.790;9.620;2023-08-06T07:56:26;14.00;99.90
19242;DHT22;9755;47.790;9.620;2023-08-06T07:58:53;13.90;99.90
19242;DHT22;9755;47.790;9.620;2023-08-06T08:01:20;13.90;99.90
19242;DHT22;9755;47.790;9.620;2023-08-06T08:03:47;13.70;99.90
19242;DHT22;9755;47.790;9.620;2023-08-06T08:06:14;13.60;99.90
19242;DHT22;9755;47.790;9.620;2023-08-06T08:08:41;13.50;99.90
19242;DHT22;9755;47.790;9.620;2023-08-06T08:11:10;13.40;99.90
19242;DHT22;9755;47.790;9.620;2023-08-06T08:13:37;13.20;99.90
19242;DHT22;9755;47.790;9.620;2023-08-06T08:16:04;13.10;99.90
19242;DHT22;9755;47.790;9.620;2023-08-06T08:18:32;13.10;99.90
19242;DHT22;9755;47.790;9.620;2023-08-06T08:20:59;13.00;99.90
19242;DHT22;9755;47.790;9.620;2023-08-06T08:23:26;13.00;99.90
19242;DHT22;9755;47.790;9.620;2023-08-06T08:25:53;13.00;99.90
19242;DHT22;9755;47.790;9.620;2023-08-06T08:28:22;13.00;99.90
19242;DHT22;9755;47.790;9.620;2023-08-06T08:30:49;13.00;99.90
19242;DHT22;9755;47.790;9.620;2023-08-06T08:33:16;13.10;99.90
19242;DHT22;9755;47.790;9.620;2023-08-06T08:35:45;13.30;99.90
19242;DHT22;9755;47.790;9.620;2023-08-06T08:38:12;13.40;99.90
19242;DHT22;9755;47.790;9.620;2023-08-06T08:40:44;13.50;99.90
19242;DHT22;9755;47.790;9.620;2023-08-06T08:43:12;13.50;99.90
19242;DHT22;9755;47.790;9.620;2023-08-06T08:45:42;13.50;99.90
19242;DHT22;9755;47.790;9.620;2023-08-06T08:48:12;13.40;99.90
19242;DHT22;9755;47.790;9.620;2023-08-06T08:50:40;13.40;99.90
19242;DHT22;9755;47.790;9.620;2023-08-06T08:53:09;13.40;99.90
19242;DHT22;9755;47.790;9.620;2023-08-06T08:55:38;13.50;99.90
19242;DHT22;9755;47.790;9.620;2023-08-06T08:58:06;13.30;99.90
19242;DHT22;9755;47.790;9.620;2023-08-06T09:00:34;13.10;99.90
19242;DHT22;9755;47.790;9.620;2023-08-06T09:03:05;13.10;99.90
19242;DHT22;9755;47.790;9.620;2023-08-06T09:05:33;13.10;99.90
19242;DHT22;9755;47.790;9.620;2023-08-06T09:08:03;13.00;99.90
19242;DHT22;9755;47.790;9.620;2023-08-06T09:10:31;13.00;99.90
19242;DHT22;9755;47.790;9.620;2023-08-06T09:12:58;13.10;99.90
19242;DHT22;9755;47.790;9.620;2023-08-06T09:15:27;13.10;99.90
19242;DHT22;9755;47.790;9.620;2023-08-06T09:17:55;13.20;99.90
19242;DHT22;9755;47.790;9.620;2023-08-06T09:20:23;13.30;99.90
19242;DHT22;9755;47.790;9.620;2023-08-06T09:22:53;13.40;99.90
19242;DHT22;9755;47.790;9.620;2023-08-06T09:25:22;13.30;99.90
19242;DHT22;9755;47.790;9.620;2023-08-06T09:27:50;13.30;99.90
19242;DHT22;9755;47.790;9.620;2023-08-06T09:30:29;13.20;99.90
19242;DHT22;9755;47.790;9.620;2023-08-06T09:32:57;13.20;99.90
19242;DHT22;9755;47.790;9.620;2023-08-06T09:35:28;13.10;99.90
19242;DHT22;9755;47.790;9.620;2023-08-06T09:37:55;13.20;99.90
19242;DHT22;9755;47.790;9.620;2023-08-06T09:40:26;13.30;99.90
19242;DHT22;9755;47.790;9.620;2023-08-06T09:42:54;13.30;99.90
19242;DHT22;9755;47.790;9.620;2023-08-06T09:45:21;13.30;99.90
19242;DHT22;9755;47.790;9.620;2023-08-06T09:47:49;13.10;99.90
19242;DHT22;9755;47.790;9.620;2023-08-06T09:50:17;12.80;99.90
19242;DHT22;9755;47.790;9.620;2023-08-06T09:52:47;12.80;99.90
19242;DHT22;9755;47.790;9.620;2023-08-06T09:55:14;12.70;99.90
19242;DHT22;9755;47.790;9.620;2023-08-06T09:57:42;12.80;99.90
19242;DHT22;9755;47.790;9.620;2023-08-06T10:00:10;12.80;99.90
19242;DHT22;9755;47.790;9.620;2023-08-06T10:02:37;12.80;99.90
19242;DHT22;9755;47.790;9.620;2023-08-06T10:05:05;12.80;99.90
19242;DHT22;9755;47.790;9.620;2023-08-06T10:07:33;12.80;99.90
19242;DHT22;9755;47.790;9.620;2023-08-06T10:10:02;12.90;99.90
19242;DHT22;9755;47.790;9.620;2023-08-06T10:12:31;12.90;99.90
19242;DHT22;9755;47.790;9.620;2023-08-06T10:15:01;13.10;99.90
19242;DHT22;9755;47.790;9.620;2023-08-06T10:17:31;13.30;99.90
19242;DHT22;9755;47.790;9.620;2023-08-06T10:19:59;13.40;99.90
19242;DHT22;9755;47.790;9.620;2023-08-06T10:22:26;13.70;99.90
19242;DHT22;9755;47.790;9.620;2023-08-06T10:24:54;13.80;99.90
19242;DHT22;9755;47.790;9.620;2023-08-06T10:27:28;13.80;99.90
19242;DHT22;9755;47.790;9.620;2023-08-06T10:29:56;14.00;99.90
19242;DHT22;9755;47.790;9.620;2023-08-06T10:32:47;14.10;99.90
19242;DHT22;9755;47.790;9.620;2023-08-06T10:35:28;14.20;99.90
19242;DHT22;9755;47.790;9.620;2023-08-06T10:37:58;14.20;99.90
19242;DHT22;9755;47.790;9.620;2023-08-06T10:40:26;14.00;99.90
19242;DHT22;9755;47.790;9.620;2023-08-06T10:42:58;13.90;99.90
19242;DHT22;9755;47.790;9.620;2023-08-06T10:45:25;14.00;99.90
19242;DHT22;9755;47.790;9.620;2023-08-06T10:47:55;14.10;99.90
19242;DHT22;9755;47.790;9.620;2023-08-06T10:50:23;14.10;99.90
19242;DHT22;9755;47.790;9.620;2023-08-06T10:52:51;14.10;99.90
19242;DHT22;9755;47.790;9.620;2023-08-06T10:55:25;13.90;99.90
19242;DHT22;9755;47.790;9.620;2023-08-06T10:57:56;13.80;99.90
19242;DHT22;9755;47.790;9.620;2023-08-06T11:00:24;13.90;99.90
19242;DHT22;9755;47.790;9.620;2023-08-06T11:02:53;13.90;99.90
19242;DHT22;9755;47.790;9.620;2023-08-06T11:05:20;14.00;99.90
19242;DHT22;9755;47.790;9.620;2023-08-06T11:07:48;14.10;99.90
19242;DHT22;9755;47.790;9.620;2023-08-06T11:10:16;14.30;99.90
19242;DHT22;9755;47.790;9.620;2023-08-06T11:12:44;14.60;99.90
19242;DHT22;9755;47.790;9.620;2023-08-06T11:15:12;14.70;99.90
19242;DHT22;9755;47.790;9.620;2023-08-06T11:17:40;14.50;99.90
19242;DHT22;9755;47.790;9.620;2023-08-06T11:20:08;14.60;99.90
19242;DHT22;9755;47.790;9.620;2023-08-06T11:22:36;14.50;99.90
19242;DHT22;9755;47.790;9.620;2023-08-06T11:25:05;14.50;99.90
19242;DHT22;9755;47.790;9.620;2023-08-06T11:27:39;14.60;99.90
19242;DHT22;9755;47.790;9.620;2023-08-06T11:30:07;14.80;99.90
19242;DHT22;9755;47.790;9.620;2023-08-06T11:32:44;14.80;99.90
19242;DHT22;9755;47.790;9.620;2023-08-06T11:35:12;14.90;99.90
19242;DHT22;9755;47.790;9.620;2023-08-06T11:37:44;15.10;99.90
19242;DHT22;9755;47.790;9.620;2023-08-06T11:40:11;15.20;99.90
19242;DHT22;9755;47.790;9.620;2023-08-06T11:42:39;15.00;99.90
19242;DHT22;9755;47.790;9.620;2023-08-06T11:45:06;15.10;99.90
19242;DHT22;9755;47.790;9.620;2023-08-06T11:47:38;15.30;99.90
19242;DHT22;9755;47.790;9.620;2023-08-06T11:50:06;15.30;99.90
19242;DHT22;9755;47.790;9.620;2023-08-06T11:52:33;15.30;99.90
19242;DHT22;9755;47.790;9.620;2023-08-06T11:55:02;15.50;99.90
19242;DHT22;9755;47.790;9.620;2023-08-06T11:57:32;15.40;99.90
19242;DHT22;9755;47.790;9.620;2023-08-06T12:00:03;15.40;99.90
19242;DHT22;9755;47.790;9.620;2023-08-06T12:02:32;15.50;99.90
19242;DHT22;9755;47.790;9.620;2023-08-06T12:05:09;15.40;99.90
19242;DHT22;9755;47.790;9.620;2023-08-06T12:07:38;15.30;99.90
19242;DHT22;9755;47.790;9.620;2023-08-06T12:10:06;15.20;99.90
19242;DHT22;9755;47.790;9.620;2023-08-06T12:12:33;15.30;99.90
19242;DHT22;9755;47.790;9.620;2023-08-06T12:15:01;15.40;99.90
19242;DHT22;9755;47.790;9.620;2023-08-06T12:17:28;15.50;99.90
19242;DHT22;9755;47.790;9.620;2023-08-06T12:19:55;15.60;99.90
19242;DHT22;9755;47.790;9.620;2023-08-06T12:22:23;15.60;99.90
19242;DHT22;9755;47.790;9.620;2023-08-06T12:24:50;15.60;99.90
19242;DHT22;9755;47.790;9.620;2023-08-06T12:27:18;15.70;99.90
19242;DHT22;9755;47.790;9.620;2023-08-06T12:29:47;15.70;99.90
19242;DHT22;9755;47.790;9.620;2023-08-06T12:32:15;15.50;99.90
19242;DHT22;9755;47.790;9.620;2023-08-06T12:34:42;15.50;99.90
19242;DHT22;9755;47.790;9.620;2023-08-06T12:37:09;15.70;99.90
19242;DHT22;9755;47.790;9.620;2023-08-06T12:39:38;16.00;99.90
19242;DHT22;9755;47.790;9.620;2023-08-06T12:42:05;16.30;99.90
19242;DHT22;9755;47.790;9.620;2023-08-06T12:44:33;16.30;99.90
19242;DHT22;9755;47.790;9.620;2023-08-06T12:47:00;16.00;99.90
19242;DHT22;9755;47.790;9.620;2023-08-06T12:49:27;16.20;99.90
19242;DHT22;9755;47.790;9.620;2023-08-06T12:51:54;16.00;99.90
19242;DHT22;9755;47.790;9.620;2023-08-06T12:54:22;15.80;99.90
19242;DHT22;9755;47.790;9.620;2023-08-06T12:56:50;15.70;99.90
19242;DHT22;9755;47.790;9.620;2023-08-06T12:59:18;15.70;99.90
19242;DHT22;9755;47.790;9.620;2023-08-06T13:01:46;15.80;99.90
19242;DHT22;9755;47.790;9.620;2023-08-06T13:04:14;15.80;99.90
19242;DHT22;9755;47.790;9.620;2023-08-06T13:06:41;15.70;99.90
19242;DHT22;9755;47.790;9.620;2023-08-06T13:09:08;15.70;99.90
19242;DHT22;9755;47.790;9.620;2023-08-06T13:11:35;15.80;99.90
19242;DHT22;9755;47.790;9.620;2023-08-06T13:14:09;15.60;99.90
19242;DHT22;9755;47.790;9.620;2023-08-06T13:16:38;15.60;99.90
19242;DHT22;9755;47.790;9.620;2023-08-06T13:19:06;15.50;99.90
19242;DHT22;9755;47.790;9.620;2023-08-06T13:21:34;15.50;99.90
19242;DHT22;9755;47.790;9.620;2023-08-06T13:24:01;15.40;99.90
19242;DHT22;9755;47.790;9.620;2023-08-06T13:26:29;15.30;99.90
19242;DHT22;9755;47.790;9.620;2023-08-06T13:28:57;15.20;99.90
19242;DHT22;9755;47.790;9.620;2023-08-06T13:31:26;14.90;99.90
19242;DHT22;9755;47.790;9.620;2023-08-06T13:33:54;14.80;99.90
19242;DHT22;9755;47.790;9.620;2023-08-06T13:36:24;14.60;99.90
19242;DHT22;9755;47.790;9.620;2023-08-06T13:38:51;14.40;99.90
19242;DHT22;9755;47.790;9.620;2023-08-06T13:41:18;14.20;99.90
19242;DHT22;9755;47.790;9.620;2023-08-06T13:43:45;13.90;99.90
19242;DHT22;9755;47.790;9.620;2023-08-06T13:46:13;13.80;99.90
19242;DHT22;9755;47.790;9.620;2023-08-06T13:48:43;13.70;99.90
19242;DHT22;9755;47.790;9.620;2023-08-06T13:51:11;13.60;99.90
19242;DHT22;9755;47.790;9.620;2023-08-06T13:53:38;13.60;99.90
19242;DHT22;9755;47.790;9.620;2023-08-06T13:56:05;13.50;99.90
19242;DHT22;9755;47.790;9.620;2023-08-06T13:58:32;13.60;99.90
19242;DHT22;9755;47.790;9.620;2023-08-06T14:01:00;13.50;99.90
19242;DHT22;9755;47.790;9.620;2023-08-06T14:03:27;13.50;99.90
19242;DHT22;9755;47.790;9.620;2023-08-06T14:05:55;13.50;99.90
19242;DHT22;9755;47.790;9.620;2023-08-06T14:08:23;13.40;99.90
19242;DHT22;9755;47.790;9.620;2023-08-06T14:10:50;13.40;99.90
19242;DHT22;9755;47.790;9.620;2023-08-06T14:13:17;13.40;99.90
19242;DHT22;9755;47.790;9.620;2023-08-06T14:15:44;13.50;99.90
19242;DHT22;9755;47.790;9.620;2023-08-06T14:18:12;13.60;99.90
19242;DHT22;9755;47.790;9.620;2023-08-06T14:20:40;13.80;99.90
19242;DHT22;9755;47.790;9.620;2023-08-06T14:23:08;13.80;99.90
19242;DHT22;9755;47.790;9.620;2023-08-06T14:25:35;14.00;99.90
19242;DHT22;9755;47.790;9.620;2023-08-06T14:28:03;14.20;99.90
19242;DHT22;9755;47.790;9.620;2023-08-06T14:30:31;14.40;99.90
19242;DHT22;9755;47.790;9.620;2023-08-06T14:32:59;14.70;99.90
19242;DHT22;9755;47.790;9.620;2023-08-06T14:35:26;14.90;99.90
19242;DHT22;9755;47.790;9.620;2023-08-06T14:37:54;14.90;99.90
19242;DHT22;9755;47.790;9.620;2023-08-06T14:40:22;15.00;99.90
19242;DHT22;9755;47.790;9.620;2023-08-06T14:42:51;15.20;99.90
19242;DHT22;9755;47.790;9.620;2023-08-06T14:45:18;15.30;99.90
19242;DHT22;9755;47.790;9.620;2023-08-06T14:47:45;15.50;99.90
19242;DHT22;9755;47.790;9.620;2023-08-06T14:50:12;15.60;99.90
19242;DHT22;9755;47.790;9.620;2023-08-06T14:52:39;15.70;99.90
19242;DHT22;9755;47.790;9.620;2023-08-06T14:55:07;15.80;99.90
19242;DHT22;9755;47.790;9.620;2023-08-06T14:57:35;15.80;99.90
19242;DHT22;9755;47.790;9.620;2023-08-06T15:00:02;15.60;99.90
19242;DHT22;9755;47.790;9.620;2023-08-06T15:02:30;15.50;99.90
19242;DHT22;9755;47.790;9.620;2023-08-06T15:04:57;15.40;99.90
19242;DHT22;9755;47.790;9.620;2023-08-06T15:07:24;15.20;99.90
19242;DHT22;9755;47.790;9.620;2023-08-06T15:09:51;14.80;99.90
19242;DHT22;9755;47.790;9.620;2023-08-06T15:12:19;14.50;99.90
19242;DHT22;9755;47.790;9.620;2023-08-06T15:14:47;14.10;99.90
19242;DHT22;9755;47.790;9.620;2023-08-06T15:17:14;13.60;99.90
19242;DHT22;9755;47.790;9.620;2023-08-06T15:19:41;13.30;99.90
19242;DHT22;9755;47.790;9.620;2023-08-06T15:22:08;13.10;99.90
19242;DHT22;9755;47.790;9.620;2023-08-06T15:24:38;13.30;99.90
19242;DHT22;9755;47.790;9.620;2023-08-06T15:27:07;13.60;99.90
19242;DHT22;9755;47.790;9.620;2023-08-06T15:29:35;14.40;99.90
19242;DHT22;9755;47.790;9.620;2023-08-06T15:32:04;14.80;99.90
19242;DHT22;9755;47.790;9.620;2023-08-06T15:34:31;15.10;99.90
19242;DHT22;9755;47.790;9.620;2023-08-06T15:36:58;15.30;99.90
19242;DHT22;9755;47.790;9.620;2023-08-06T15:39:25;15.80;99.90
19242;DHT22;9755;47.790;9.620;2023-08-06T15:41:52;15.70;99.90
19242;DHT22;9755;47.790;9.620;2023-08-06T15:44:19;15.50;99.90
19242;DHT22;9755;47.790;9.620;2023-08-06T15:46:46;15.50;99.90
19242;DHT22;9755;47.790;9.620;2023-08-06T15:49:15;15.60;99.90